createdAt,value
2023-01-27T00:00:51.650Z,99734.50
2023-01-27T00:03:25.955Z,99733.31
2023-01-27T00:05:52.873Z,99727.88
2023-01-27T00:08:20.086Z,99720.41
2023-01-27T00:10:47.292Z,99723.91
2023-01-27T00:13:27.120Z,99726.03
2023-01-27T00:15:54.222Z,99731.47
2023-01-27T00:18:23.390Z,99727.38
2023-01-27T00:21:08.974Z,99728.47
2023-01-27T00:23:55.234Z,99728.47
2023-01-27T00:26:22.567Z,99732.84
2023-01-27T00:28:49.897Z,99737.97
2023-01-27T00:31:37.903Z,99732.84
2023-01-27T00:34:11.187Z,99740.25
2023-01-27T00:36:40.258Z,99736.31
2023-01-27T00:39:08.336Z,99738.44
2023-01-27T00:41:35.340Z,99729.50
2023-01-27T00:44:03.109Z,99726.03
2023-01-27T00:46:30.089Z,99728.75
2023-01-27T00:48:57.705Z,99738.13
2023-01-27T00:51:25.134Z,99738.75
2023-01-27T00:53:57.255Z,99740.25
2023-01-27T00:56:24.463Z,99740.88
2023-01-27T00:58:51.670Z,99746.78
2023-01-27T01:01:18.671Z,99743.28
2023-01-27T01:03:46.708Z,99745.69
2023-01-27T01:06:16.259Z,99753.13
2023-01-27T01:08:43.825Z,99749.63
2023-01-27T01:11:13.452Z,99752.69
2023-01-27T01:13:41.613Z,99750.69
2023-01-27T01:16:14.096Z,99753.41
2023-01-27T01:18:41.866Z,99746.16
2023-01-27T01:21:11.581Z,99746.16
2023-01-27T01:23:40.679Z,99742.97
2023-01-27T01:26:10.183Z,99747.22
2023-01-27T01:28:38.736Z,99750.41
2023-01-27T01:31:07.795Z,99747.69
2023-01-27T01:33:35.651Z,99751.13
2023-01-27T01:36:08.835Z,99741.47
2023-01-27T01:38:36.661Z,99744.50
2023-01-27T01:41:04.471Z,99748.09
2023-01-27T01:43:31.686Z,99745.69
2023-01-27T01:45:59.623Z,99741.47
2023-01-27T01:48:43.217Z,99742.97
2023-01-27T01:51:15.162Z,99732.66
2023-01-27T01:54:02.597Z,99736.00
2023-01-27T01:56:34.284Z,99732.84
2023-01-27T01:59:04.421Z,99736.31
2023-01-27T02:01:31.641Z,99732.06
2023-01-27T02:04:01.011Z,99726.03
2023-01-27T02:06:28.540Z,99732.84
2023-01-27T02:08:57.894Z,99727.38
2023-01-27T02:11:25.049Z,99726.63
2023-01-27T02:13:52.769Z,99727.06
2023-01-27T02:16:19.684Z,99718.00
2023-01-27T02:18:46.877Z,99723.00
2023-01-27T02:21:13.877Z,99716.00
2023-01-27T02:23:41.287Z,99716.78
2023-01-27T02:26:30.573Z,99715.59
2023-01-27T02:29:08.484Z,99720.28
2023-01-27T02:31:36.250Z,99715.41
2023-01-27T02:34:06.366Z,99715.13
2023-01-27T02:36:36.213Z,99703.78
2023-01-27T02:39:04.436Z,99700.13
2023-01-27T02:41:31.294Z,99697.84
2023-01-27T02:43:58.610Z,99693.03
2023-01-27T02:46:25.540Z,99698.47
2023-01-27T02:48:52.868Z,99701.66
2023-01-27T02:51:20.333Z,99690.00
2023-01-27T02:53:50.607Z,99693.78
2023-01-27T02:56:17.458Z,99681.50
2023-01-27T02:58:44.705Z,99691.06
2023-01-27T03:01:18.075Z,99694.66
2023-01-27T03:03:47.547Z,99692.72
2023-01-27T03:06:19.130Z,99690.91
2023-01-27T03:08:47.099Z,99683.94
2023-01-27T03:11:35.787Z,99685.47
2023-01-27T03:14:04.895Z,99683.47
2023-01-27T03:16:50.259Z,99686.19
2023-01-27T03:19:17.928Z,99682.72
2023-01-27T03:21:45.348Z,99685.47
2023-01-27T03:24:12.983Z,99688.50
2023-01-27T03:26:40.605Z,99691.94
2023-01-27T03:29:28.201Z,99687.41
2023-01-27T03:31:56.121Z,99683.78
2023-01-27T03:34:23.489Z,99684.84
2023-01-27T03:37:13.459Z,99685.75
2023-01-27T03:40:01.910Z,99683.78
2023-01-27T03:42:48.707Z,99672.72
2023-01-27T03:45:34.548Z,99680.88
2023-01-27T03:48:01.393Z,99679.25
2023-01-27T03:50:38.074Z,99678.16
2023-01-27T03:53:05.574Z,99673.94
2023-01-27T03:55:35.199Z,99672.72
2023-01-27T03:58:18.414Z,99672.44
2023-01-27T04:00:46.441Z,99670.31
2023-01-27T04:03:32.962Z,99669.84
2023-01-27T04:06:21.770Z,99675.28
2023-01-27T04:08:48.648Z,99673.47
2023-01-27T04:11:37.581Z,99678.47
2023-01-27T04:14:05.925Z,99676.66
2023-01-27T04:16:34.584Z,99675.59
2023-01-27T04:19:01.512Z,99672.44
2023-01-27T04:21:29.084Z,99661.97
2023-01-27T04:23:56.248Z,99663.19
2023-01-27T04:26:23.623Z,99676.66
2023-01-27T04:28:50.760Z,99678.16
2023-01-27T04:31:18.597Z,99677.88
2023-01-27T04:33:45.484Z,99682.56
2023-01-27T04:36:16.411Z,99682.09
2023-01-27T04:38:43.287Z,99681.50
2023-01-27T04:41:10.548Z,99681.03
2023-01-27T04:43:37.440Z,99681.94
2023-01-27T04:46:04.811Z,99686.34
2023-01-27T04:48:31.783Z,99685.13
2023-01-27T04:50:58.969Z,99679.53
2023-01-27T04:53:25.773Z,99673.78
2023-01-27T04:55:52.958Z,99676.03
2023-01-27T04:58:19.906Z,99679.06
2023-01-27T05:00:47.273Z,99683.03
2023-01-27T05:03:14.317Z,99684.53
2023-01-27T05:05:41.519Z,99688.16
2023-01-27T05:08:10.060Z,99673.31
2023-01-27T05:10:37.231Z,99673.31
2023-01-27T05:13:04.151Z,99678.44
2023-01-27T05:15:33.805Z,99678.44
2023-01-27T05:18:00.717Z,99674.84
2023-01-27T05:20:27.927Z,99680.00
2023-01-27T05:23:14.718Z,99687.84
2023-01-27T05:25:43.186Z,99678.16
2023-01-27T05:28:10.353Z,99686.34
2023-01-27T05:30:40.085Z,99688.63
2023-01-27T05:33:08.501Z,99687.84
2023-01-27T05:35:35.767Z,99694.50
2023-01-27T05:38:02.727Z,99697.53
2023-01-27T05:40:30.147Z,99686.34
2023-01-27T05:42:57.119Z,99697.69
2023-01-27T05:45:24.355Z,99696.63
2023-01-27T05:47:51.964Z,99693.91
2023-01-27T05:50:19.304Z,99685.28
2023-01-27T05:52:48.834Z,99690.44
2023-01-27T05:55:16.325Z,99692.69
2023-01-27T05:57:43.173Z,99691.06
2023-01-27T06:00:10.751Z,99691.19
2023-01-27T06:02:37.736Z,99694.22
2023-01-27T06:05:05.314Z,99695.88
2023-01-27T06:07:32.180Z,99706.63
2023-01-27T06:09:59.357Z,99696.19
2023-01-27T06:12:26.281Z,99695.88
2023-01-27T06:14:55.484Z,99702.22
2023-01-27T06:17:22.466Z,99706.91
2023-01-27T06:19:49.625Z,99701.78
2023-01-27T06:22:16.474Z,99702.22
2023-01-27T06:24:43.687Z,99699.97
2023-01-27T06:27:13.621Z,99694.19
2023-01-27T06:29:40.874Z,99709.94
2023-01-27T06:32:07.883Z,99698.28
2023-01-27T06:34:35.151Z,99699.66
2023-01-27T06:37:04.638Z,99697.25
2023-01-27T06:39:34.404Z,99696.00
2023-01-27T06:42:01.356Z,99696.94
2023-01-27T06:44:30.865Z,99702.22
2023-01-27T06:46:58.052Z,99699.81
2023-01-27T06:49:25.821Z,99704.50
2023-01-27T06:51:52.673Z,99703.28
2023-01-27T06:54:20.143Z,99712.34
2023-01-27T06:56:46.990Z,99706.47
2023-01-27T06:59:14.310Z,99707.53
2023-01-27T07:01:42.233Z,99711.28
2023-01-27T07:04:10.652Z,99707.38
2023-01-27T07:06:37.931Z,99706.91
2023-01-27T07:09:05.158Z,99700.38
2023-01-27T07:11:32.043Z,99712.97
2023-01-27T07:13:59.183Z,99717.97
2023-01-27T07:16:26.076Z,99718.75
2023-01-27T07:18:55.942Z,99729.19
2023-01-27T07:21:22.812Z,99727.66
2023-01-27T07:23:50.055Z,99727.66
2023-01-27T07:26:24.950Z,99736.13
2023-01-27T07:28:52.846Z,99728.72
2023-01-27T07:31:19.801Z,99724.47
2023-01-27T07:33:47.196Z,99725.56
2023-01-27T07:36:14.147Z,99730.53
2023-01-27T07:38:41.430Z,99737.81
2023-01-27T07:41:09.476Z,99732.81
2023-01-27T07:43:36.936Z,99736.31
2023-01-27T07:46:07.939Z,99735.09
2023-01-27T07:48:35.334Z,99743.88
2023-01-27T07:51:02.185Z,99737.97
2023-01-27T07:53:36.842Z,99733.59
2023-01-27T07:56:04.387Z,99736.91
2023-01-27T07:58:31.349Z,99742.22
2023-01-27T08:00:58.703Z,99747.38
2023-01-27T08:03:25.972Z,99751.19
2023-01-27T08:05:55.673Z,99736.97
2023-01-27T08:08:22.695Z,99742.88
2023-01-27T08:10:51.536Z,99742.09
2023-01-27T08:13:18.524Z,99751.81
2023-01-27T08:15:45.836Z,99742.28
2023-01-27T08:21:18.227Z,99751.66
2023-01-27T08:23:48.357Z,99758.19
2023-01-27T08:26:16.072Z,99751.50
2023-01-27T08:28:43.023Z,99757.44
2023-01-27T08:31:11.674Z,99751.19
2023-01-27T08:33:41.544Z,99756.06
2023-01-27T08:36:12.827Z,99751.50
2023-01-27T08:38:40.366Z,99752.56
2023-01-27T08:41:09.061Z,99753.78
2023-01-27T08:43:36.392Z,99761.38
2023-01-27T08:46:04.400Z,99768.03
2023-01-27T08:48:31.894Z,99764.09
2023-01-27T08:51:00.011Z,99778.78
2023-01-27T08:53:27.633Z,99770.00
2023-01-27T08:56:02.007Z,99770.00
2023-01-27T08:58:28.880Z,99772.72
2023-01-27T09:01:01.490Z,99775.75
2023-01-27T09:03:29.139Z,99777.72
2023-01-27T09:05:56.565Z,99787.13
2023-01-27T09:08:23.672Z,99773.94
2023-01-27T09:10:51.073Z,99780.88
2023-01-27T09:13:22.496Z,99775.00
2023-01-27T09:15:53.293Z,99781.50
2023-01-27T09:18:20.520Z,99773.63
2023-01-27T09:20:47.803Z,99779.84
2023-01-27T09:23:14.935Z,99778.78
2023-01-27T09:25:44.863Z,99779.41
2023-01-27T09:28:17.188Z,99776.66
2023-01-27T09:30:48.234Z,99777.72
2023-01-27T09:33:15.685Z,99774.84
2023-01-27T09:35:48.541Z,99779.69
2023-01-27T09:38:18.218Z,99781.81
2023-01-27T09:40:45.397Z,99785.16
2023-01-27T09:43:12.600Z,99783.94
2023-01-27T09:45:39.919Z,99787.56
2023-01-27T09:48:25.741Z,99788.91
2023-01-27T09:50:58.108Z,99790.91
2023-01-27T09:53:43.516Z,99790.47
2023-01-27T09:56:15.575Z,99782.28
2023-01-27T09:58:48.786Z,99785.75
2023-01-27T10:01:28.066Z,99784.53
2023-01-27T10:03:58.069Z,99773.63
2023-01-27T10:06:30.476Z,99779.53
2023-01-27T10:09:12.685Z,99780.75
2023-01-27T10:11:40.377Z,99776.66
2023-01-27T10:14:13.540Z,99768.78
2023-01-27T10:17:00.002Z,99760.31
2023-01-27T10:19:42.773Z,99762.28
2023-01-27T10:22:37.935Z,99767.13
2023-01-27T10:25:08.058Z,99757.44
2023-01-27T10:27:41.146Z,99766.06
2023-01-27T10:30:19.298Z,99757.28
2023-01-27T10:33:01.397Z,99759.69
2023-01-27T10:35:30.631Z,99756.06
2023-01-27T10:38:20.894Z,99764.25
2023-01-27T10:40:57.061Z,99764.69
2023-01-27T10:43:34.173Z,99762.72
2023-01-27T10:46:16.392Z,99767.88
2023-01-27T10:48:51.512Z,99762.72
2023-01-27T10:51:37.601Z,99763.63
2023-01-27T10:54:19.983Z,99766.06
2023-01-27T10:56:59.726Z,99757.88
2023-01-27T10:59:31.443Z,99760.28
2023-01-27T11:02:24.553Z,99751.66
2023-01-27T11:04:54.642Z,99748.94
2023-01-27T11:07:22.248Z,99753.19
2023-01-27T11:10:10.482Z,99755.91
2023-01-27T11:12:40.456Z,99754.22
2023-01-27T11:15:20.040Z,99756.06
2023-01-27T11:17:50.344Z,99748.03
2023-01-27T11:20:32.195Z,99750.63
2023-01-27T11:22:59.498Z,99747.28
2023-01-27T11:25:34.623Z,99752.72
2023-01-27T11:28:06.804Z,99741.34
2023-01-27T11:30:39.349Z,99744.69
2023-01-27T11:33:13.710Z,99742.41
2023-01-27T11:35:43.314Z,99752.72
2023-01-27T11:38:17.188Z,99744.84
2023-01-27T11:40:45.891Z,99748.63
2023-01-27T11:43:16.417Z,99740.59
2023-01-27T11:45:45.491Z,99742.13
2023-01-27T11:48:17.895Z,99734.25
2023-01-27T11:50:45.359Z,99739.41
2023-01-27T11:53:23.206Z,99730.91
2023-01-27T11:56:00.752Z,99733.94
2023-01-27T11:58:34.672Z,99727.72
2023-01-27T12:01:04.495Z,99727.41
2023-01-27T12:03:34.442Z,99722.75
2023-01-27T12:06:05.747Z,99726.06
2023-01-27T12:08:40.737Z,99720.75
2023-01-27T12:11:22.914Z,99721.50
2023-01-27T12:13:51.594Z,99722.25
2023-01-27T12:16:19.760Z,99712.09
2023-01-27T12:18:53.673Z,99715.09
2023-01-27T12:21:22.720Z,99709.75
2023-01-27T12:23:49.592Z,99718.06
2023-01-27T12:26:28.022Z,99718.69
2023-01-27T12:28:55.208Z,99714.13
2023-01-27T12:31:22.778Z,99712.00
2023-01-27T12:33:58.478Z,99713.78
2023-01-27T12:36:25.748Z,99710.78
2023-01-27T12:38:54.271Z,99712.59
2023-01-27T12:41:25.925Z,99710.00
2023-01-27T12:44:00.351Z,99709.56
2023-01-27T12:46:28.766Z,99705.34
2023-01-27T12:49:09.623Z,99715.63
2023-01-27T12:52:04.256Z,99714.25
2023-01-27T12:54:32.629Z,99713.97
2023-01-27T12:57:07.597Z,99713.53
2023-01-27T12:59:35.920Z,99714.72
2023-01-27T13:02:03.250Z,99707.16
2023-01-27T13:04:30.843Z,99705.94
2023-01-27T13:07:04.230Z,99709.28
2023-01-27T13:09:50.055Z,99715.66
2023-01-27T13:12:20.641Z,99709.03
2023-01-27T13:14:57.880Z,99713.56
2023-01-27T13:17:48.241Z,99707.25
2023-01-27T13:20:18.363Z,99728.31
2023-01-27T13:22:48.064Z,99723.31
2023-01-27T13:25:19.614Z,99718.78
2023-01-27T13:27:51.067Z,99721.22
2023-01-27T13:30:36.944Z,99719.41
2023-01-27T13:33:21.172Z,99723.78
2023-01-27T13:35:56.139Z,99716.66
2023-01-27T13:38:29.254Z,99717.56
2023-01-27T13:40:59.002Z,99732.28
2023-01-27T13:43:30.547Z,99723.03
2023-01-27T13:46:01.508Z,99721.66
2023-01-27T13:48:40.788Z,99714.72
2023-01-27T13:51:17.969Z,99696.38
2023-01-27T13:53:47.764Z,99707.56
2023-01-27T13:56:17.768Z,99706.06
2023-01-27T13:58:57.321Z,99707.56
2023-01-27T14:01:24.278Z,99711.06
2023-01-27T14:04:10.375Z,99721.97
2023-01-27T14:06:40.337Z,99717.13
2023-01-27T14:09:08.816Z,99724.25
2023-01-27T14:11:43.119Z,99728.34
2023-01-27T14:14:16.589Z,99725.31
2023-01-27T14:17:02.141Z,99746.81
2023-01-27T14:19:32.332Z,99740.75
2023-01-27T14:22:14.585Z,99736.38
2023-01-27T14:24:59.999Z,99735.59
2023-01-27T14:27:35.101Z,99746.81
2023-01-27T14:30:02.343Z,99743.00
2023-01-27T14:32:44.630Z,99748.03
2023-01-27T14:35:21.020Z,99747.28
2023-01-27T14:38:06.772Z,99744.25
2023-01-27T14:40:50.115Z,99744.69
2023-01-27T14:43:21.863Z,99744.84
2023-01-27T14:45:53.867Z,99753.03
2023-01-27T14:48:48.420Z,99746.81
2023-01-27T14:51:42.801Z,99745.75
2023-01-27T14:54:28.426Z,99751.38
2023-01-27T14:57:13.482Z,99754.53
2023-01-27T14:59:47.733Z,99759.09
2023-01-27T15:02:18.934Z,99763.16
2023-01-27T15:04:49.010Z,99765.13
2023-01-27T15:07:36.970Z,99763.59
2023-01-27T15:10:09.503Z,99763.13
2023-01-27T15:12:39.143Z,99772.78
2023-01-27T15:15:24.848Z,99770.22
2023-01-27T15:17:55.231Z,99770.81
2023-01-27T15:20:22.203Z,99777.75
2023-01-27T15:23:07.715Z,99765.59
2023-01-27T15:25:39.676Z,99772.56
2023-01-27T15:28:12.014Z,99781.59
2023-01-27T15:30:40.994Z,99784.00
2023-01-27T15:33:26.643Z,99783.34
2023-01-27T15:36:13.738Z,99793.81
2023-01-27T15:38:58.050Z,99789.72
2023-01-27T15:41:25.176Z,99782.88
2023-01-27T15:44:11.081Z,99781.84
2023-01-27T15:46:42.092Z,99791.53
2023-01-27T15:49:15.764Z,99783.94
2023-01-27T15:51:42.683Z,99764.28
2023-01-27T15:54:16.390Z,99773.63
2023-01-27T15:56:43.306Z,99777.25
2023-01-27T15:59:15.533Z,99777.53
2023-01-27T16:01:42.933Z,99794.25
2023-01-27T16:04:10.089Z,99794.13
2023-01-27T16:06:44.689Z,99789.50
2023-01-27T16:09:20.560Z,99789.31
2023-01-27T16:11:58.136Z,99783.09
2023-01-27T16:14:33.013Z,99787.13
2023-01-27T16:17:10.061Z,99790.91
2023-01-27T16:19:41.139Z,99786.06
2023-01-27T16:22:19.723Z,99801.59
2023-01-27T16:25:05.826Z,99791.41
2023-01-27T16:27:38.964Z,99805.13
2023-01-27T16:30:11.490Z,99807.09
2023-01-27T16:32:40.899Z,99799.25
2023-01-27T16:35:16.215Z,99794.88
2023-01-27T16:37:59.991Z,99798.03
2023-01-27T16:40:27.975Z,99797.31
2023-01-27T16:42:59.757Z,99807.75
2023-01-27T16:45:28.608Z,99804.13
2023-01-27T16:47:58.570Z,99795.53
2023-01-27T16:50:36.545Z,99796.63
2023-01-27T16:53:19.811Z,99794.22
2023-01-27T16:55:57.537Z,99799.66
2023-01-27T16:58:32.434Z,99793.75
2023-01-27T17:01:05.890Z,99805.25
2023-01-27T17:03:38.855Z,99803.56
2023-01-27T17:06:08.704Z,99804.19
2023-01-27T17:08:43.393Z,99809.00
2023-01-27T17:11:23.102Z,99813.66
2023-01-27T17:13:56.789Z,99816.38
2023-01-27T17:16:24.556Z,99825.31
2023-01-27T17:18:53.209Z,99831.53
2023-01-27T17:21:33.773Z,99832.28
2023-01-27T17:24:06.638Z,99826.22
2023-01-27T17:26:34.807Z,99825.44
2023-01-27T17:29:04.462Z,99835.25
2023-01-27T17:31:37.003Z,99845.81
2023-01-27T17:34:04.571Z,99850.47
2023-01-27T17:36:32.020Z,99846.13
2023-01-27T17:39:22.457Z,99845.81
2023-01-27T17:41:55.568Z,99853.66
2023-01-27T17:44:25.952Z,99856.03
2023-01-27T17:46:54.454Z,99860.84
2023-01-27T17:49:21.825Z,99865.41
2023-01-27T17:51:55.878Z,99857.53
2023-01-27T17:54:22.798Z,99855.72
2023-01-27T17:56:52.125Z,99852.38
2023-01-27T17:59:20.416Z,99852.63
2023-01-27T18:01:49.457Z,99861.31
2023-01-27T18:04:17.658Z,99855.88
2023-01-27T18:06:48.908Z,99855.88
2023-01-27T18:09:17.739Z,99861.13
2023-01-27T18:11:56.201Z,99856.97
2023-01-27T18:14:23.508Z,99861.75
2023-01-27T18:17:05.023Z,99860.25
2023-01-27T18:19:35.617Z,99853.63
2023-01-27T18:22:13.573Z,99857.22
2023-01-27T18:24:47.836Z,99842.44
2023-01-27T18:27:33.806Z,99851.44
2023-01-27T18:30:16.169Z,99855.06
2023-01-27T18:32:44.996Z,99852.00
2023-01-27T18:35:38.634Z,99857.88
2023-01-27T18:38:23.814Z,99864.66
2023-01-27T18:40:51.728Z,99860.28
2023-01-27T18:43:21.751Z,99871.59
2023-01-27T18:45:50.935Z,99877.03
2023-01-27T18:48:18.873Z,99886.28
2023-01-27T18:50:47.453Z,99884.28
2023-01-27T18:53:19.285Z,99888.44
2023-01-27T18:55:46.984Z,99892.22
2023-01-27T18:58:18.534Z,99894.94
2023-01-27T19:00:48.925Z,99899.97
2023-01-27T19:03:19.844Z,99899.19
2023-01-27T19:05:47.491Z,99892.97
2023-01-27T19:08:17.543Z,99895.69
2023-01-27T19:10:46.856Z,99899.97
2023-01-27T19:13:15.123Z,99887.56
2023-01-27T19:15:49.893Z,99889.09
2023-01-27T19:18:24.903Z,99891.66
2023-01-27T19:20:52.712Z,99898.97
2023-01-27T19:23:21.241Z,99890.81
2023-01-27T19:25:50.850Z,99899.06
2023-01-27T19:28:23.517Z,99902.53
2023-01-27T19:30:50.986Z,99899.69
2023-01-27T19:33:21.862Z,99898.97
2023-01-27T19:35:51.440Z,99894.72
2023-01-27T19:38:18.918Z,99903.50
2023-01-27T19:40:46.633Z,99897.97
2023-01-27T19:43:14.964Z,99896.75
2023-01-27T19:45:43.483Z,99899.91
2023-01-27T19:48:13.969Z,99900.25
2023-01-27T19:50:47.644Z,99905.69
2023-01-27T19:53:16.558Z,99916.56
2023-01-27T19:55:44.883Z,99915.38
2023-01-27T19:58:21.904Z,99920.81
2023-01-27T20:00:49.931Z,99920.38
2023-01-27T20:03:20.914Z,99925.03
2023-01-27T20:05:49.785Z,99917.97
2023-01-27T20:08:20.871Z,99914.94
2023-01-27T20:10:48.859Z,99907.84
2023-01-27T20:13:20.812Z,99917.97
2023-01-27T20:15:48.422Z,99912.94
2023-01-27T20:18:17.922Z,99919.16
2023-01-27T20:20:46.364Z,99924.59
2023-01-27T20:23:14.930Z,99921.44
2023-01-27T20:25:42.947Z,99927.31
2023-01-27T20:28:12.980Z,99934.69
2023-01-27T20:30:43.187Z,99938.63
2023-01-27T20:33:11.865Z,99930.47
2023-01-27T20:35:39.139Z,99928.09
2023-01-27T20:38:07.097Z,99925.81
2023-01-27T20:40:35.442Z,99926.66
2023-01-27T20:43:03.728Z,99928.53
2023-01-27T20:45:32.855Z,99933.97
2023-01-27T20:48:00.885Z,99927.31
2023-01-27T20:50:35.083Z,99932.31
2023-01-27T20:53:05.155Z,99932.75
2023-01-27T20:55:32.750Z,99937.31
2023-01-27T20:58:02.325Z,99930.47
2023-01-27T21:00:29.446Z,99934.41
2023-01-27T21:02:59.053Z,99928.84
2023-01-27T21:05:30.358Z,99933.84
2023-01-27T21:08:01.807Z,99937.31
2023-01-27T21:10:29.849Z,99933.84
2023-01-27T21:12:57.547Z,99936.13
2023-01-27T21:15:25.239Z,99940.47
2023-01-27T21:17:53.624Z,99939.72
2023-01-27T21:20:24.279Z,99937.75
2023-01-27T21:22:52.133Z,99935.03
2023-01-27T21:25:19.937Z,99933.53
2023-01-27T21:27:48.635Z,99932.75
2023-01-27T21:30:19.258Z,99935.03
2023-01-27T21:32:46.992Z,99939.59
2023-01-27T21:35:14.134Z,99936.25
2023-01-27T21:37:42.827Z,99945.06
2023-01-27T21:40:10.595Z,99953.22
2023-01-27T21:42:56.600Z,99950.91
2023-01-27T21:45:25.084Z,99942.75
2023-01-27T21:47:52.323Z,99948.19
2023-01-27T21:50:20.837Z,99947.44
2023-01-27T21:52:52.122Z,99950.03
2023-01-27T21:55:23.905Z,99948.50
2023-01-27T21:57:52.388Z,99946.13
2023-01-27T22:00:20.532Z,99948.94
2023-01-27T22:02:55.426Z,99954.72
2023-01-27T22:05:27.307Z,99958.66
2023-01-27T22:07:54.864Z,99953.84
2023-01-27T22:10:24.025Z,99951.88
2023-01-27T22:12:52.064Z,99955.38
2023-01-27T22:15:19.929Z,99962.00
2023-01-27T22:17:47.311Z,99967.44
2023-01-27T22:20:15.688Z,99961.13
2023-01-27T22:22:43.676Z,99960.81
2023-01-27T22:25:12.568Z,99964.28
2023-01-27T22:27:43.409Z,99961.13
2023-01-27T22:30:17.584Z,99962.75
2023-01-27T22:32:45.631Z,99962.97
2023-01-27T22:35:17.518Z,99965.69
2023-01-27T22:37:45.530Z,99963.41
2023-01-27T22:40:13.194Z,99961.44
2023-01-27T22:42:40.706Z,99968.84
2023-01-27T22:45:08.403Z,99964.47
2023-01-27T22:47:36.221Z,99974.19
2023-01-27T22:50:03.566Z,99964.16
2023-01-27T22:52:31.409Z,99958.28
2023-01-27T22:54:58.511Z,99972.19
2023-01-27T22:57:35.047Z,99966.31
2023-01-27T23:00:07.838Z,99961.22
2023-01-27T23:02:35.718Z,99966.19
2023-01-27T23:05:02.851Z,99962.41
2023-01-27T23:07:30.253Z,99961.22
2023-01-27T23:09:59.702Z,99962.75
2023-01-27T23:12:26.923Z,99963.19
2023-01-27T23:14:54.070Z,99959.38
2023-01-27T23:17:21.240Z,99963.19
2023-01-27T23:19:48.271Z,99968.94
2023-01-27T23:22:15.426Z,99963.94
2023-01-27T23:24:42.269Z,99958.81
2023-01-27T23:27:09.534Z,99962.41
2023-01-27T23:29:36.455Z,99955.03
2023-01-27T23:32:03.839Z,99956.53
2023-01-27T23:34:30.911Z,99965.47
2023-01-27T23:36:58.157Z,99963.19
2023-01-27T23:39:25.686Z,99963.94
2023-01-27T23:41:52.979Z,99964.81
2023-01-27T23:44:19.831Z,99967.84
2023-01-27T23:46:47.146Z,99964.69
2023-01-27T23:49:14.265Z,99968.19
2023-01-27T23:51:41.568Z,99963.94
2023-01-27T23:54:08.538Z,99963.47
2023-01-27T23:56:35.823Z,99962.41
2023-01-27T23:59:02.969Z,99967.09
